Time;durP1;ratioP1;P1;durP2;ratioP2;P2;SDS_P1;SDS_P2;PMS_P1;PMS_P2;Temp;Humidity;BMP_temperature;BMP_pressure;BME280_temperature;BME280_humidity;BME280_pressure;Samples;Min_cycle;Max_cycle;Signal;HPM_P1;HPM_P2
2021/06/13 00:01:56;;;;;;;;;6.25;4.75;;;;;18.33;62.61;100685.34;4957581;28;45513;-79
2021/06/13 00:04:22;;;;;;;;;9.00;7.00;;;;;18.31;61.98;100684.53;4973438;28;54045;-80
2021/06/13 00:06:52;;;;;;;;;5.25;4.25;;;;;18.23;62.41;100671.38;4971164;28;45492;-80
2021/06/13 00:09:17;;;;;;;;;7.25;4.50;;;;;18.16;62.39;100661.72;4974277;28;45416;-80
2021/06/13 00:11:43;;;;;;;;;7.25;6.00;;;;;18.17;62.67;100668.88;4975270;28;45527;-80
2021/06/13 00:14:08;;;;;;;;;6.00;4.25;;;;;18.13;62.85;100675.31;4971191;28;45507;-81
2021/06/13 00:16:33;;;;;;;;;7.00;5.25;;;;;18.09;62.76;100666.47;4973775;28;48761;-80
2021/06/13 00:18:59;;;;;;;;;8.50;5.50;;;;;18.02;62.78;100654.16;4971508;28;59184;-80
2021/06/13 00:21:24;;;;;;;;;8.75;6.50;;;;;18.10;62.86;100667.34;4969804;28;60096;-80
2021/06/13 00:23:50;;;;;;;;;5.75;5.75;;;;;17.99;63.36;100661.47;4975206;28;45468;-81
2021/06/13 00:26:15;;;;;;;;;8.00;6.75;;;;;17.99;63.03;100669.53;4958097;28;45546;-80
2021/06/13 00:28:41;;;;;;;;;8.50;6.75;;;;;18.01;63.35;100668.56;4990178;28;47031;-80
2021/06/13 00:31:07;;;;;;;;;4.00;4.00;;;;;17.96;63.32;100657.94;4976113;28;45340;-80
2021/06/13 00:33:33;;;;;;;;;7.00;5.75;;;;;17.81;63.70;100635.13;4970348;28;55379;-80
2021/06/13 00:35:58;;;;;;;;;6.00;5.25;;;;;17.91;64.32;100656.31;4954851;28;45452;-80
2021/06/13 00:38:24;;;;;;;;;6.75;6.75;;;;;17.85;63.91;100661.94;4973264;28;46164;-80
2021/06/13 00:40:49;;;;;;;;;6.00;6.00;;;;;17.78;63.82;100654.06;4971242;28;63872;-80
2021/06/13 00:43:15;;;;;;;;;7.50;5.25;;;;;17.78;64.15;100651.38;4971180;28;45570;-80
2021/06/13 00:45:40;;;;;;;;;5.50;5.00;;;;;17.68;63.75;100644.53;4971347;28;45859;-80
2021/06/13 00:48:07;;;;;;;;;5.00;5.00;;;;;17.59;63.89;100635.00;4974352;28;45495;-80
2021/06/13 00:50:52;;;;;;;;;8.50;7.75;;;;;17.70;64.07;100653.44;4969369;28;45912;-80
2021/06/13 00:53:19;;;;;;;;;6.25;5.50;;;;;17.74;64.16;100664.97;4970299;28;45539;-80
2021/06/13 00:55:45;;;;;;;;;7.75;6.50;;;;;17.62;64.22;100639.38;4971977;28;45603;-80
2021/06/13 00:58:10;;;;;;;;;7.00;6.25;;;;;17.70;64.27;100658.84;4952347;28;47927;-80
2021/06/13 01:00:38;;;;;;;;;8.50;6.75;;;;;17.65;64.03;100656.31;4974493;28;45797;-80
2021/06/13 01:03:04;;;;;;;;;7.75;7.00;;;;;17.59;63.85;100643.06;4973658;28;45797;-80
2021/06/13 01:05:31;;;;;;;;;8.75;5.75;;;;;17.65;64.25;100659.00;4974022;28;45373;-80
2021/06/13 01:08:21;;;;;;;;;8.25;5.75;;;;;17.65;64.39;100664.38;4973328;28;46655;-81
2021/06/13 01:11:01;;;;;;;;;8.75;7.00;;;;;17.60;64.12;100650.22;4972250;28;45906;-80
2021/06/13 01:13:49;;;;;;;;;7.50;5.25;;;;;17.61;64.69;100657.38;4974141;28;45515;-80
2021/06/13 01:16:26;;;;;;;;;8.00;8.00;;;;;17.59;64.46;100664.59;4970396;28;45363;-80
2021/06/13 01:19:09;;;;;;;;;7.50;5.50;;;;;17.41;64.33;100639.19;4972157;28;48011;-80
2021/06/13 01:22:01;;;;;;;;;7.50;6.75;;;;;17.46;64.30;100642.59;4970281;28;46071;-80
2021/06/13 01:24:45;;;;;;;;;6.25;5.00;;;;;17.57;64.05;100668.25;4973890;28;45491;-80
2021/06/13 01:27:16;;;;;;;;;6.75;4.00;;;;;17.55;64.51;100672.81;4969513;28;45622;-80
2021/06/13 01:29:44;;;;;;;;;6.00;6.00;;;;;17.43;64.22;100647.19;4972030;28;45466;-80
2021/06/13 01:32:23;;;;;;;;;8.75;5.50;;;;;17.53;64.42;100672.84;4972743;28;45561;-80
2021/06/13 01:34:58;;;;;;;;;8.00;6.00;;;;;17.49;64.94;100674.78;4971096;28;45657;-80
2021/06/13 01:37:28;;;;;;;;;5.00;5.00;;;;;17.43;64.86;100664.25;4971875;28;45515;-80
2021/06/13 01:39:58;;;;;;;;;9.50;6.75;;;;;17.50;64.83;100676.53;4969563;28;45466;-80
2021/06/13 01:42:25;;;;;;;;;7.25;6.50;;;;;17.50;64.30;100678.38;4972723;28;45889;-80
2021/06/13 01:44:57;;;;;;;;;9.00;5.00;;;;;17.48;64.42;100678.41;4968384;28;45590;-80
2021/06/13 01:47:24;;;;;;;;;10.25;7.00;;;;;17.42;64.87;100665.16;4969697;28;45591;-80
2021/06/13 01:49:54;;;;;;;;;9.50;7.75;;;;;17.44;64.61;100676.75;4970042;28;46312;-80
2021/06/13 01:52:21;;;;;;;;;8.75;7.00;;;;;17.34;64.90;100667.22;4970541;28;45449;-80
2021/06/13 01:54:47;;;;;;;;;7.00;5.50;;;;;17.35;64.28;100680.63;4969917;28;45721;-80
2021/06/13 01:57:13;;;;;;;;;8.25;7.50;;;;;17.35;65.28;100683.31;4968418;28;45515;-80
2021/06/13 01:59:41;;;;;;;;;6.75;6.00;;;;;17.38;64.89;100686.84;4971955;28;46321;-80
2021/06/13 02:02:07;;;;;;;;;6.00;6.00;;;;;17.29;65.26;100682.63;4971985;28;45477;-80
2021/06/13 02:04:33;;;;;;;;;5.75;5.75;;;;;17.31;65.17;100686.16;4971848;28;45612;-80
2021/06/13 02:07:00;;;;;;;;;8.75;7.00;;;;;17.25;64.98;100684.53;4973055;28;45488;-80
2021/06/13 02:09:27;;;;;;;;;7.00;6.00;;;;;17.27;64.84;100685.38;4967855;28;45467;-80
2021/06/13 02:11:55;;;;;;;;;6.50;5.00;;;;;17.17;65.19;100671.34;4971875;28;45611;-80
2021/06/13 02:14:23;;;;;;;;;11.25;8.00;;;;;17.21;65.14;100677.50;4981265;28;45512;-80
2021/06/13 02:16:48;;;;;;;;;5.75;5.75;;;;;17.29;64.98;100693.38;4968938;28;45586;-80
2021/06/13 02:19:19;;;;;;;;;6.75;6.25;;;;;17.28;64.71;100686.25;4972601;28;46740;-80
2021/06/13 02:21:45;;;;;;;;;7.00;7.00;;;;;17.28;64.60;100692.53;4952217;28;45992;-80
2021/06/13 02:24:11;;;;;;;;;6.00;5.50;;;;;17.25;64.78;100695.31;4971195;28;45919;-80
2021/06/13 02:26:39;;;;;;;;;7.00;7.00;;;;;17.27;64.68;100698.81;4971795;28;45525;-80
2021/06/13 02:29:06;;;;;;;;;7.75;6.00;;;;;17.27;64.74;100698.81;4955006;28;48250;-80
2021/06/13 02:31:32;;;;;;;;;7.25;7.00;;;;;17.22;64.29;100689.16;4971138;28;45505;-79
2021/06/13 02:33:59;;;;;;;;;8.75;6.75;;;;;17.23;64.36;100689.09;4972705;28;45829;-80
2021/06/13 02:36:25;;;;;;;;;8.50;8.00;;;;;17.25;64.45;100691.75;4969846;28;45552;-80
2021/06/13 02:38:55;;;;;;;;;6.50;6.25;;;;;17.16;64.21;100692.91;4965687;28;45515;-80
2021/06/13 02:41:21;;;;;;;;;6.25;5.25;;;;;17.07;64.29;100679.75;4971737;28;45409;-79
2021/06/13 02:43:46;;;;;;;;;10.25;7.00;;;;;17.08;64.42;100687.75;4954287;28;45413;-79
2021/06/13 02:46:11;;;;;;;;;7.00;6.50;;;;;17.21;64.50;100706.19;4988317;28;45516;-79
2021/06/13 02:48:37;;;;;;;;;7.25;6.75;;;;;17.18;64.50;100707.19;4973050;28;49431;-79
2021/06/13 02:51:03;;;;;;;;;7.75;7.00;;;;;17.19;64.16;100709.81;4967293;28;45505;-80
2021/06/13 02:53:42;;;;;;;;;9.25;6.25;;;;;17.15;64.46;100718.03;4971566;28;45589;-79
2021/06/13 02:56:40;;;;;;;;;6.50;6.50;;;;;17.10;64.33;100717.28;4968813;28;46639;-79
2021/06/13 02:59:30;;;;;;;;;7.50;7.50;;;;;17.15;64.39;100729.66;4971708;28;45357;-80
2021/06/13 03:01:55;;;;;;;;;8.50;7.00;;;;;17.11;64.48;100732.47;4969699;28;45555;-79
2021/06/13 03:04:22;;;;;;;;;7.00;5.25;;;;;17.03;64.06;100720.16;4968256;28;65121;-80
2021/06/13 03:06:56;;;;;;;;;11.25;7.50;;;;;17.04;64.49;100726.41;4968444;28;46345;-80
2021/06/13 03:09:26;;;;;;;;;8.50;6.25;;;;;16.89;64.23;100712.50;4966718;28;46125;-79
2021/06/13 03:11:53;;;;;;;;;7.25;6.00;;;;;17.05;64.63;100747.00;4968218;28;45572;-79
2021/06/13 03:14:19;;;;;;;;;8.75;6.25;;;;;16.96;64.66;100736.53;4971061;28;45429;-79
2021/06/13 03:16:45;;;;;;;;;7.25;6.00;;;;;17.04;64.12;100751.50;4971050;28;45559;-79
2021/06/13 03:19:11;;;;;;;;;5.75;5.75;;;;;17.02;64.29;100747.97;4971379;28;48104;-81
2021/06/13 03:21:37;;;;;;;;;7.25;6.50;;;;;16.89;64.11;100727.72;4971451;28;45462;-79
2021/06/13 03:24:04;;;;;;;;;6.00;6.00;;;;;16.88;64.52;100729.56;4953711;28;45367;-81
2021/06/13 03:26:30;;;;;;;;;5.50;5.50;;;;;16.93;64.49;100740.16;4969846;28;45688;-80
2021/06/13 03:28:57;;;;;;;;;4.50;4.25;;;;;16.82;64.59;100724.38;4971967;28;59553;-82
2021/06/13 03:31:23;;;;;;;;;9.25;6.25;;;;;16.88;64.71;100739.41;4974012;28;46037;-81
2021/06/13 03:33:49;;;;;;;;;11.25;8.00;;;;;16.91;64.56;100746.53;4971805;28;45312;-81
2021/06/13 03:36:16;;;;;;;;;8.25;7.00;;;;;16.76;64.05;100721.84;4973724;28;45425;-81
2021/06/13 03:38:42;;;;;;;;;6.00;6.00;;;;;16.73;64.38;100719.25;4957032;28;47331;-79
2021/06/13 03:41:09;;;;;;;;;6.75;6.75;;;;;16.71;64.54;100722.00;4974079;28;45453;-79
2021/06/13 03:43:34;;;;;;;;;9.75;5.50;;;;;16.81;64.61;100743.22;4973371;28;45583;-81
2021/06/13 03:46:00;;;;;;;;;7.00;5.75;;;;;16.79;64.68;100745.97;4970916;28;45495;-80
2021/06/13 03:48:26;;;;;;;;;8.50;5.00;;;;;16.65;65.01;100723.97;4973582;28;46130;-80
2021/06/13 03:50:52;;;;;;;;;11.25;7.25;;;;;16.69;64.92;100739.09;4969630;28;49537;-81
2021/06/13 03:53:20;;;;;;;;;11.25;8.50;;;;;16.70;64.96;100748.91;4974799;28;45544;-81
2021/06/13 03:55:45;;;;;;;;;5.75;5.75;;;;;16.71;64.84;100743.47;4973048;28;45466;-81
2021/06/13 03:58:11;;;;;;;;;5.25;5.25;;;;;16.61;64.72;100741.13;4970753;28;61264;-80
2021/06/13 04:00:37;;;;;;;;;10.25;8.00;;;;;16.63;64.71;100741.94;4970411;28;53738;-80
2021/06/13 04:03:04;;;;;;;;;8.50;7.00;;;;;16.65;64.73;100748.16;4971324;28;45279;-80
2021/06/13 04:05:30;;;;;;;;;5.75;5.25;;;;;16.60;64.72;100736.69;4973935;28;45436;-81
2021/06/13 04:07:55;;;;;;;;;6.75;6.75;;;;;16.55;64.38;100734.97;4970040;28;45992;-80
2021/06/13 04:10:21;;;;;;;;;12.00;8.25;;;;;16.69;64.71;100750.69;4969538;28;45671;-80
2021/06/13 04:12:48;;;;;;;;;11.50;7.75;;;;;16.77;64.62;100771.13;4973712;28;45531;-80
2021/06/13 04:15:15;;;;;;;;;8.75;8.75;;;;;16.75;64.71;100759.53;4966941;28;45537;-80
2021/06/13 04:17:41;;;;;;;;;7.00;7.00;;;;;16.70;64.66;100754.28;4967463;28;46881;-80
2021/06/13 04:20:08;;;;;;;;;8.75;7.25;;;;;16.77;64.89;100773.81;4972155;28;45526;-80
2021/06/13 04:22:36;;;;;;;;;12.00;8.00;;;;;16.57;64.78;100734.94;4968128;28;45350;-80
2021/06/13 04:25:02;;;;;;;;;6.25;4.25;;;;;16.79;64.91;100777.31;4972946;28;45774;-80
2021/06/13 04:27:27;;;;;;;;;9.00;7.50;;;;;16.78;64.92;100775.53;4971764;28;48425;-80
2021/06/13 04:29:59;;;;;;;;;10.75;7.50;;;;;16.75;64.64;100776.50;4969495;28;46102;-80
2021/06/13 04:32:25;;;;;;;;;9.50;7.00;;;;;16.73;65.12;100773.00;4963859;28;45586;-81
2021/06/13 04:34:50;;;;;;;;;9.75;6.00;;;;;16.69;65.09;100758.75;4970387;28;45536;-80
2021/06/13 04:37:17;;;;;;;;;9.00;7.50;;;;;16.73;64.96;100764.94;4973347;28;51702;-80
2021/06/13 04:39:42;;;;;;;;;9.25;7.25;;;;;16.80;65.07;100779.06;4969770;28;45734;-80
2021/06/13 04:42:08;;;;;;;;;9.75;6.75;;;;;16.80;64.89;100782.66;4973638;28;53145;-81
2021/06/13 04:44:35;;;;;;;;;10.75;7.50;;;;;16.86;64.74;100787.84;4973359;28;45326;-80
2021/06/13 04:47:00;;;;;;;;;9.00;8.25;;;;;16.79;64.99;100774.63;4956793;28;47651;-81
2021/06/13 04:49:25;;;;;;;;;6.50;6.50;;;;;16.73;65.16;100764.94;4958178;28;50184;-80
2021/06/13 04:51:56;;;;;;;;;10.00;9.00;;;;;16.88;64.98;100799.44;4967029;28;45411;-81
2021/06/13 04:54:21;;;;;;;;;9.00;7.25;;;;;16.89;65.34;100797.63;4971650;28;45469;-81
2021/06/13 04:57:07;;;;;;;;;8.33;7.00;;;;;16.93;65.03;100793.06;4969488;28;45620;-80
2021/06/13 04:59:32;;;;;;;;;5.75;5.75;;;;;16.81;65.00;100767.41;4951776;28;45896;-81
2021/06/13 05:01:59;;;;;;;;;8.50;7.25;;;;;16.94;65.00;100784.06;4949984;28;45923;-81
2021/06/13 05:04:24;;;;;;;;;9.50;7.25;;;;;17.00;64.72;100786.59;4971848;28;45458;-81
2021/06/13 05:06:50;;;;;;;;;11.50;9.25;;;;;16.92;64.91;100772.47;4963950;28;62437;-81
2021/06/13 05:09:15;;;;;;;;;8.25;6.00;;;;;16.98;64.88;100783.06;4970768;28;45583;-81
2021/06/13 05:11:40;;;;;;;;;6.00;5.00;;;;;16.91;64.87;100770.72;4962819;28;45507;-81
2021/06/13 05:14:06;;;;;;;;;7.00;7.00;;;;;16.99;64.98;100780.31;4973412;28;45750;-81
2021/06/13 05:16:32;;;;;;;;;5.75;5.75;;;;;17.10;65.06;100793.47;4971325;28;45624;-81
2021/06/13 05:18:57;;;;;;;;;9.00;9.00;;;;;17.14;64.82;100795.09;4970391;28;45404;-81
2021/06/13 05:21:23;;;;;;;;;7.75;7.75;;;;;17.07;64.71;100781.91;4969168;28;47554;-80
2021/06/13 05:23:48;;;;;;;;;7.75;6.25;;;;;16.96;64.90;100768.78;4969457;28;45542;-81
2021/06/13 05:26:13;;;;;;;;;7.00;5.75;;;;;17.14;64.96;100791.56;4968425;28;46617;-81
2021/06/13 05:28:39;;;;;;;;;10.00;7.00;;;;;17.22;65.00;100805.63;4973328;28;45549;-80
2021/06/13 05:31:05;;;;;;;;;5.25;5.25;;;;;17.20;64.66;100804.78;4974553;28;45522;-81
2021/06/13 05:33:31;;;;;;;;;9.25;7.75;;;;;17.29;64.99;100804.53;4957097;28;45500;-81
2021/06/13 05:35:57;;;;;;;;;8.75;7.00;;;;;17.26;65.05;100804.63;4964474;28;46156;-80
2021/06/13 05:38:23;;;;;;;;;6.25;6.25;;;;;17.26;64.92;100799.25;4970974;28;46084;-80
2021/06/13 05:40:49;;;;;;;;;7.75;7.00;;;;;17.35;64.84;100811.53;4968297;28;45524;-81
2021/06/13 05:43:14;;;;;;;;;6.50;6.50;;;;;17.40;65.16;100819.47;4974370;28;45383;-81
2021/06/13 05:45:41;;;;;;;;;9.75;6.25;;;;;17.45;65.18;100826.47;4968739;28;45851;-81
2021/06/13 05:48:07;;;;;;;;;10.25;7.25;;;;;17.40;65.36;100806.88;4966301;28;46328;-80
2021/06/13 05:50:33;;;;;;;;;6.50;6.00;;;;;17.55;64.86;100823.50;4973404;28;45560;-79
2021/06/13 05:52:59;;;;;;;;;10.00;8.75;;;;;17.53;64.63;100807.38;4972960;28;45526;-80
2021/06/13 05:55:24;;;;;;;;;11.00;8.50;;;;;17.68;64.32;100824.84;4969237;28;45544;-80
2021/06/13 05:57:50;;;;;;;;;11.50;7.00;;;;;17.73;64.59;100828.28;4954781;28;49618;-80
2021/06/13 06:00:24;;;;;;;;;11.75;9.00;;;;;17.74;63.80;100823.75;4961544;28;45321;-80
2021/06/13 06:02:49;;;;;;;;;9.75;7.75;;;;;17.75;63.15;100814.75;4977740;28;45451;-80
2021/06/13 06:05:17;;;;;;;;;8.75;8.25;;;;;17.89;62.85;100830.47;4972330;28;45581;-81
2021/06/13 06:07:42;;;;;;;;;9.50;9.25;;;;;17.87;62.53;100816.19;4969974;28;45538;-80
2021/06/13 06:10:10;;;;;;;;;13.25;8.25;;;;;18.01;61.38;100826.53;4970472;28;45620;-80
2021/06/13 06:12:36;;;;;;;;;7.75;7.25;;;;;18.06;61.43;100828.16;4972545;28;45538;-81
2021/06/13 06:15:03;;;;;;;;;7.50;7.25;;;;;18.16;61.28;100833.22;4966816;28;45498;-81
2021/06/13 06:17:28;;;;;;;;;8.25;8.25;;;;;18.15;60.49;100823.38;4971627;28;45551;-80
2021/06/13 06:19:54;;;;;;;;;9.75;7.00;;;;;18.16;59.77;100811.66;4967821;28;54925;-80
2021/06/13 06:22:19;;;;;;;;;12.25;7.50;;;;;18.33;59.74;100838.03;4964689;28;45513;-72
2021/06/13 06:24:45;;;;;;;;;8.25;6.50;;;;;18.39;59.05;100830.63;4958857;28;46202;-66
2021/06/13 06:27:10;;;;;;;;;10.25;7.25;;;;;18.48;59.73;100836.63;4939954;28;45647;-68
2021/06/13 06:29:36;;;;;;;;;7.50;5.00;;;;;18.57;58.86;100841.69;4944921;28;45697;-68
2021/06/13 06:32:01;;;;;;;;;7.75;6.50;;;;;18.68;58.81;100834.09;4936240;28;46773;-67
2021/06/13 06:34:26;;;;;;;;;11.00;8.50;;;;;18.78;59.10;100833.75;4946924;28;45571;-66
2021/06/13 06:36:52;;;;;;;;;8.00;6.50;;;;;18.85;58.57;100836.19;4948690;28;58132;-67
2021/06/13 06:39:18;;;;;;;;;7.00;7.00;;;;;18.94;57.64;100840.38;4947561;28;45417;-67
2021/06/13 06:41:43;;;;;;;;;6.25;5.00;;;;;19.03;58.36;100842.75;4953756;28;45412;-66
2021/06/13 06:44:10;;;;;;;;;7.50;6.75;;;;;19.15;57.08;100849.47;4953668;28;54986;-66
2021/06/13 06:46:36;;;;;;;;;7.00;7.00;;;;;19.26;56.90;100849.06;4947812;28;45887;-67
2021/06/13 06:49:03;;;;;;;;;8.50;7.50;;;;;19.35;56.40;100847.84;4957976;28;45578;-67
2021/06/13 06:51:29;;;;;;;;;11.00;6.50;;;;;19.46;57.93;100852.84;4948839;28;45556;-68
2021/06/13 06:53:56;;;;;;;;;11.25;7.50;;;;;19.54;56.02;100850.72;4946359;28;55805;-67
2021/06/13 06:56:21;;;;;;;;;9.00;7.00;;;;;19.61;56.54;100844.13;4952402;28;45289;-67
2021/06/13 06:58:46;;;;;;;;;6.50;4.75;;;;;19.71;56.32;100844.66;4952356;28;45902;-67
2021/06/13 07:01:12;;;;;;;;;8.00;6.75;;;;;19.80;55.60;100843.38;4945671;28;56283;-67
2021/06/13 07:03:37;;;;;;;;;6.75;5.00;;;;;19.88;55.61;100844.00;4957588;28;46038;-68
2021/06/13 07:06:03;;;;;;;;;6.75;5.75;;;;;19.96;55.28;100849.94;4953313;28;55747;-68
2021/06/13 07:08:28;;;;;;;;;6.00;6.00;;;;;20.03;54.91;100847.88;4946812;28;45537;-67
2021/06/13 07:10:55;;;;;;;;;8.00;7.00;;;;;20.07;54.93;100848.63;4956547;28;45437;-65
2021/06/13 07:13:20;;;;;;;;;6.25;6.25;;;;;20.16;55.14;100847.38;4947116;28;46383;-67
2021/06/13 07:15:46;;;;;;;;;7.75;5.00;;;;;20.25;53.88;100841.56;4950593;28;45317;-67
2021/06/13 07:18:11;;;;;;;;;6.75;6.00;;;;;20.37;53.14;100849.13;4950048;28;45436;-67
2021/06/13 07:20:36;;;;;;;;;4.75;4.00;;;;;20.47;53.20;100848.75;4955469;28;46148;-68
2021/06/13 07:23:02;;;;;;;;;5.25;5.25;;;;;20.54;54.81;100855.66;4955151;28;46365;-67
2021/06/13 07:25:28;;;;;;;;;8.00;6.50;;;;;20.61;53.40;100853.56;4954211;28;45441;-67
2021/06/13 07:27:54;;;;;;;;;4.50;4.50;;;;;20.69;52.14;100854.97;4951025;28;45464;-67
2021/06/13 07:30:20;;;;;;;;;4.75;4.00;;;;;20.72;52.70;100867.50;4945701;28;45523;-65
2021/06/13 07:32:47;;;;;;;;;5.75;4.00;;;;;20.77;53.31;100862.78;4948036;28;47257;-65
2021/06/13 07:35:14;;;;;;;;;6.00;6.00;;;;;20.86;52.43;100856.94;4947505;28;45710;-67
2021/06/13 07:37:40;;;;;;;;;7.00;7.00;;;;;20.92;52.32;100858.50;4949788;28;45563;-67
2021/06/13 07:40:07;;;;;;;;;7.00;5.75;;;;;20.96;52.11;100852.00;4954222;28;45543;-67
2021/06/13 07:42:32;;;;;;;;;6.50;5.00;;;;;21.03;51.96;100858.91;4951882;28;45492;-67
2021/06/13 07:44:58;;;;;;;;;4.75;4.75;;;;;21.11;51.58;100854.97;4953382;28;45535;-67
2021/06/13 07:47:24;;;;;;;;;5.00;4.75;;;;;21.20;51.61;100860.81;4953797;28;45659;-66
2021/06/13 07:49:49;;;;;;;;;19.75;13.50;;;;;21.30;51.62;100858.59;4950367;28;45425;-66
2021/06/13 07:52:16;;;;;;;;;10.50;7.50;;;;;21.36;51.43;100843.88;4954733;28;45405;-66
2021/06/13 07:54:41;;;;;;;;;9.25;6.50;;;;;21.52;50.11;100844.03;4951140;28;45600;-67
2021/06/13 07:57:07;;;;;;;;;8.00;5.75;;;;;21.68;50.72;100857.75;4947749;28;45452;-67
2021/06/13 07:59:35;;;;;;;;;8.50;6.25;;;;;21.79;48.55;100851.78;4951028;28;45484;-66
2021/06/13 08:02:01;;;;;;;;;7.75;7.00;;;;;21.88;48.73;100862.16;4949496;28;46932;-67
2021/06/13 08:04:34;;;;;;;;;4.75;4.75;;;;;21.97;47.29;100852.72;4948038;28;45469;-68
2021/06/13 08:06:59;;;;;;;;;5.50;4.00;;;;;22.03;49.93;100863.25;4949945;28;45686;-68
2021/06/13 08:09:25;;;;;;;;;5.00;5.00;;;;;22.10;47.14;100851.16;4952144;28;45846;-73
2021/06/13 08:11:51;;;;;;;;;5.25;5.25;;;;;22.18;48.32;100844.47;4949844;28;45641;-65
2021/06/13 08:14:16;;;;;;;;;6.75;4.75;;;;;22.27;47.30;100846.72;4949639;28;45524;-66
2021/06/13 08:16:41;;;;;;;;;3.25;3.25;;;;;22.22;47.24;100829.81;4950300;28;45954;-67
2021/06/13 08:19:07;;;;;;;;;4.75;4.00;;;;;22.38;47.45;100852.47;4951653;28;45509;-68
2021/06/13 08:21:34;;;;;;;;;4.00;4.00;;;;;22.46;46.75;100854.81;4946714;28;46679;-68
2021/06/13 08:23:59;;;;;;;;;4.75;4.75;;;;;22.56;47.18;100855.19;4949837;28;47315;-67
2021/06/13 08:26:26;;;;;;;;;5.25;5.25;;;;;22.65;46.56;100854.72;4947258;28;51165;-67
2021/06/13 08:28:51;;;;;;;;;4.75;4.75;;;;;22.73;44.19;100846.19;4949571;28;45673;-71
2021/06/13 08:31:17;;;;;;;;;6.50;4.25;;;;;22.71;45.16;100848.97;4947503;28;46186;-68
2021/06/13 08:33:42;;;;;;;;;6.25;4.25;;;;;22.74;44.85;100854.25;4952019;28;45524;-66
2021/06/13 08:36:08;;;;;;;;;4.75;4.00;;;;;22.87;45.48;100850.84;4949857;28;45933;-66
2021/06/13 08:38:34;;;;;;;;;6.00;5.00;;;;;23.02;45.84;100851.88;4948565;28;46703;-67
2021/06/13 08:40:59;;;;;;;;;5.00;4.00;;;;;23.17;44.34;100844.75;4949294;28;47143;-67
2021/06/13 08:43:25;;;;;;;;;4.00;4.00;;;;;23.25;44.10;100837.09;4951353;28;45456;-66
2021/06/13 08:45:54;;;;;;;;;5.00;4.50;;;;;23.42;44.84;100847.00;4941851;28;45638;-64
2021/06/13 08:48:20;;;;;;;;;5.75;4.75;;;;;23.47;43.39;100836.75;4946557;28;45857;-69
2021/06/13 08:50:45;;;;;;;;;5.00;4.00;;;;;23.52;44.24;100833.78;4934124;28;46089;-66
2021/06/13 08:53:10;;;;;;;;;4.00;4.00;;;;;23.60;43.99;100834.22;4944307;28;46454;-65
2021/06/13 08:55:36;;;;;;;;;4.50;3.25;;;;;23.61;43.13;100838.69;4945740;28;46043;-68
2021/06/13 08:58:02;;;;;;;;;5.50;4.50;;;;;23.60;43.15;100834.22;4948770;28;45660;-66
2021/06/13 09:00:30;;;;;;;;;4.75;4.50;;;;;23.62;43.23;100821.41;4944358;28;45560;-72
2021/06/13 09:02:56;;;;;;;;;5.75;4.00;;;;;23.54;44.07;100823.72;4948566;28;46022;-65
2021/06/13 09:05:26;;;;;;;;;4.50;3.00;;;;;23.57;42.73;100819.94;4944562;28;46081;-64
2021/06/13 09:07:57;;;;;;;;;7.00;4.00;;;;;23.61;42.62;100827.81;4947218;28;45571;-67
2021/06/13 09:10:28;;;;;;;;;4.00;4.00;;;;;23.55;42.98;100828.19;4931352;28;45761;-67
2021/06/13 09:13:16;;;;;;;;;4.00;4.00;;;;;23.58;43.34;100828.00;4950101;28;45620;-67
2021/06/13 09:15:44;;;;;;;;;3.75;3.75;;;;;23.54;40.91;100818.28;4947951;28;45578;-67
2021/06/13 09:18:27;;;;;;;;;3.00;3.00;;;;;23.53;42.76;100832.81;4949711;28;49339;-68
2021/06/13 09:20:52;;;;;;;;;4.00;4.00;;;;;23.65;41.66;100826.69;4947487;28;46117;-66
2021/06/13 09:23:18;;;;;;;;;4.00;4.00;;;;;23.76;41.19;100827.91;4948654;28;45395;-66
2021/06/13 09:25:44;;;;;;;;;5.50;5.50;;;;;23.76;42.03;100817.03;4949328;28;46002;-68
2021/06/13 09:28:11;;;;;;;;;4.75;4.75;;;;;23.86;42.80;100831.84;4944901;28;45694;-67
2021/06/13 09:30:40;;;;;;;;;6.00;4.75;;;;;23.92;41.73;100831.47;4950256;28;45828;-67
2021/06/13 09:33:23;;;;;;;;;3.75;3.75;;;;;23.98;41.53;100822.13;4951006;28;45506;-67
2021/06/13 09:35:51;;;;;;;;;2.50;2.50;;;;;24.05;41.64;100828.97;4947886;28;45578;-68
2021/06/13 09:38:47;;;;;;;;;4.75;4.75;;;;;24.17;40.94;100831.94;4949111;28;45485;-67
2021/06/13 09:41:19;;;;;;;;;4.75;4.00;;;;;24.23;40.79;100832.41;4892991;29;47271;-68
2021/06/13 09:43:47;;;;;;;;;5.00;4.00;;;;;24.33;40.80;100827.31;4887426;29;45957;-68
2021/06/13 09:46:24;;;;;;;;;4.00;4.00;;;;;24.42;40.04;100831.34;4892249;29;45708;-68
2021/06/13 09:48:55;;;;;;;;;3.00;3.00;;;;;24.47;40.83;100833.78;4893074;29;45568;-67
2021/06/13 09:51:24;;;;;;;;;4.50;3.00;;;;;24.48;40.46;100833.66;4892286;29;46687;-68
2021/06/13 09:53:56;;;;;;;;;8.50;5.00;;;;;24.62;40.71;100823.78;4892555;29;45822;-67
2021/06/13 09:56:35;;;;;;;;;1.75;1.75;;;;;24.73;39.06;100824.91;4892317;29;45872;-66
2021/06/13 09:59:15;;;;;;;;;3.50;3.50;;;;;24.79;41.14;100823.66;4891681;29;45441;-67
2021/06/13 10:01:51;;;;;;;;;3.50;3.50;;;;;24.92;39.71;100826.50;4891523;29;46122;-66
2021/06/13 10:04:19;;;;;;;;;5.50;5.00;;;;;25.03;38.97;100834.84;4892051;29;46107;-69
2021/06/13 10:06:49;;;;;;;;;6.50;6.00;;;;;25.08;39.42;100837.25;4889830;29;45571;-68
2021/06/13 10:09:17;;;;;;;;;4.00;4.00;;;;;25.05;38.33;100827.44;4885000;29;46126;-68
2021/06/13 10:11:43;;;;;;;;;4.25;4.00;;;;;25.04;39.38;100824.84;4890563;29;45630;-68
2021/06/13 10:14:10;;;;;;;;;4.00;4.00;;;;;25.10;40.39;100827.16;4891709;29;45859;-81
2021/06/13 10:16:39;;;;;;;;;6.25;5.00;;;;;25.22;40.86;100804.59;4907053;28;45476;-81
2021/06/13 10:19:12;;;;;;;;;4.50;3.25;;;;;25.44;40.80;100802.38;4947783;28;45760;-81
2021/06/13 10:21:43;;;;;;;;;6.00;5.00;;;;;25.53;40.91;100796.31;4952636;28;45473;-81
2021/06/13 10:24:11;;;;;;;;;5.00;5.00;;;;;25.80;38.40;100807.25;4966667;28;47274;-81
2021/06/13 10:26:40;;;;;;;;;4.75;4.00;;;;;25.95;39.47;100808.06;4948285;28;45721;-81
2021/06/13 10:29:06;;;;;;;;;5.00;5.00;;;;;25.98;40.10;100791.47;4940220;28;45496;-81
2021/06/13 10:31:32;;;;;;;;;4.50;4.50;;;;;26.10;39.73;100803.44;4953038;28;46178;-81
2021/06/13 10:33:58;;;;;;;;;7.50;5.00;;;;;26.21;39.80;100797.25;4934438;28;45700;-81
2021/06/13 10:36:23;;;;;;;;;4.25;4.00;;;;;26.38;40.27;100800.66;4949212;28;45276;-81
2021/06/13 10:38:49;;;;;;;;;4.75;4.00;;;;;26.50;39.73;100808.00;4953860;28;57005;-81
2021/06/13 10:41:14;;;;;;;;;4.75;4.75;;;;;26.59;40.27;100798.28;4948197;28;45804;-81
2021/06/13 10:43:40;;;;;;;;;5.00;5.00;;;;;26.75;39.13;100798.97;4951928;28;52805;-81
2021/06/13 10:46:10;;;;;;;;;4.00;4.00;;;;;26.84;38.03;100778.31;4955377;28;45562;-81
2021/06/13 10:48:51;;;;;;;;;4.75;4.75;;;;;27.04;36.79;100786.94;4954352;28;45459;-81
2021/06/13 10:51:35;;;;;;;;;4.25;4.25;;;;;27.17;37.38;100778.75;4950258;28;46047;-81
2021/06/13 10:54:18;;;;;;;;;4.75;4.75;;;;;27.28;39.01;100780.66;4951204;28;45469;-82
2021/06/13 10:56:44;;;;;;;;;4.50;4.50;;;;;27.31;38.74;100781.31;4963448;28;45635;-81
2021/06/13 10:59:17;;;;;;;;;5.25;5.00;;;;;27.38;38.27;100777.16;4951591;28;48471;-81
2021/06/13 11:02:13;;;;;;;;;5.50;5.00;;;;;27.50;38.44;100774.53;4952010;28;45371;-80
2021/06/13 11:04:54;;;;;;;;;5.00;4.25;;;;;27.63;37.35;100775.34;4953671;28;45666;-81
2021/06/13 11:07:28;;;;;;;;;4.00;4.00;;;;;27.74;36.79;100773.66;4953532;28;45564;-84
2021/06/13 11:10:07;;;;;;;;;6.25;4.00;;;;;27.84;36.39;100770.13;4950126;28;45521;-81
2021/06/13 11:12:39;;;;;;;;;5.00;5.00;;;;;28.01;36.98;100770.66;4952496;28;45640;-81
2021/06/13 11:15:07;;;;;;;;;4.25;4.25;;;;;28.32;37.40;100776.53;4930618;28;45869;-81
2021/06/13 11:17:56;;;;;;;;;4.00;3.75;;;;;28.74;36.26;100774.16;4947370;28;45498;-81
2021/06/13 11:21:03;;;;;;;;;4.50;3.50;;;;;30.86;34.26;100771.16;4950127;28;45429;-81
2021/06/13 11:23:38;;;;;;;;;5.00;4.00;;;;;36.18;28.73;100777.03;4948419;28;46629;-80
2021/06/13 11:26:06;;;;;;;;;4.75;3.00;;;;;40.30;24.79;100767.38;4949036;28;45969;-81
2021/06/13 11:28:35;;;;;;;;;4.00;4.00;;;;;43.47;22.07;100773.41;4935272;28;45504;-81
2021/06/13 11:31:17;;;;;;;;;3.50;3.50;;;;;45.17;20.15;100770.69;4953298;28;45425;-80